sensor_id;sensor_type;location;lat;lon;timestamp;temperature;humidity
40868;DHT22;26586;50.708;22.412;2023-05-24T00:02:08;22.00;45.10
40868;DHT22;26586;50.708;22.412;2023-05-24T00:04:39;22.00;45.20
40868;DHT22;26586;50.708;22.412;2023-05-24T00:07:06;21.90;45.30
40868;DHT22;26586;50.708;22.412;2023-05-24T00:09:32;21.90;45.30
40868;DHT22;26586;50.708;22.412;2023-05-24T00:11:59;21.90;45.40
40868;DHT22;26586;50.708;22.412;2023-05-24T00:14:25;21.90;45.40
40868;DHT22;26586;50.708;22.412;2023-05-24T00:16:51;21.90;45.50
40868;DHT22;26586;50.708;22.412;2023-05-24T00:19:18;21.80;45.50
40868;DHT22;26586;50.708;22.412;2023-05-24T00:21:47;21.80;45.50
40868;DHT22;26586;50.708;22.412;2023-05-24T00:24:14;21.80;45.60
40868;DHT22;26586;50.708;22.412;2023-05-24T00:26:42;21.80;45.60
40868;DHT22;26586;50.708;22.412;2023-05-24T00:29:08;21.80;45.60
40868;DHT22;26586;50.708;22.412;2023-05-24T00:31:34;21.80;45.60
40868;DHT22;26586;50.708;22.412;2023-05-24T00:34:01;21.80;45.60
40868;DHT22;26586;50.708;22.412;2023-05-24T00:36:27;21.80;45.60
40868;DHT22;26586;50.708;22.412;2023-05-24T00:38:53;21.80;45.60
40868;DHT22;26586;50.708;22.412;2023-05-24T00:41:19;21.70;45.60
40868;DHT22;26586;50.708;22.412;2023-05-24T00:43:46;21.70;45.60
40868;DHT22;26586;50.708;22.412;2023-05-24T00:46:18;21.70;45.60
40868;DHT22;26586;50.708;22.412;2023-05-24T00:48:45;21.70;45.50
40868;DHT22;26586;50.708;22.412;2023-05-24T00:51:12;21.70;45.50
40868;DHT22;26586;50.708;22.412;2023-05-24T00:53:41;21.70;45.60
40868;DHT22;26586;50.708;22.412;2023-05-24T00:56:09;21.70;45.70
40868;DHT22;26586;50.708;22.412;2023-05-24T00:58:36;21.70;45.80
40868;DHT22;26586;50.708;22.412;2023-05-24T01:01:02;21.70;45.90
40868;DHT22;26586;50.708;22.412;2023-05-24T01:03:29;21.60;46.00
40868;DHT22;26586;50.708;22.412;2023-05-24T01:05:57;21.70;46.10
40868;DHT22;26586;50.708;22.412;2023-05-24T01:16:16;21.60;46.30
40868;DHT22;26586;50.708;22.412;2023-05-24T01:18:53;21.60;46.30
40868;DHT22;26586;50.708;22.412;2023-05-24T01:27:10;21.50;46.50
40868;DHT22;26586;50.708;22.412;2023-05-24T01:29:38;21.50;46.60
40868;DHT22;26586;50.708;22.412;2023-05-24T01:32:04;21.50;46.60
40868;DHT22;26586;50.708;22.412;2023-05-24T01:34:32;21.50;46.60
40868;DHT22;26586;50.708;22.412;2023-05-24T01:36:58;21.50;46.60
40868;DHT22;26586;50.708;22.412;2023-05-24T01:39:26;21.40;46.70
40868;DHT22;26586;50.708;22.412;2023-05-24T01:42:04;21.40;46.70
40868;DHT22;26586;50.708;22.412;2023-05-24T01:45:24;21.40;46.70
40868;DHT22;26586;50.708;22.412;2023-05-24T01:50:59;21.40;46.70
40868;DHT22;26586;50.708;22.412;2023-05-24T01:53:29;21.40;46.70
40868;DHT22;26586;50.708;22.412;2023-05-24T01:56:01;21.40;46.80
40868;DHT22;26586;50.708;22.412;2023-05-24T01:58:29;21.40;46.90
40868;DHT22;26586;50.708;22.412;2023-05-24T02:00:56;21.40;46.90
40868;DHT22;26586;50.708;22.412;2023-05-24T02:03:25;21.40;46.90
40868;DHT22;26586;50.708;22.412;2023-05-24T02:05:51;21.30;46.90
40868;DHT22;26586;50.708;22.412;2023-05-24T02:08:18;21.30;47.00
40868;DHT22;26586;50.708;22.412;2023-05-24T02:10:44;21.30;47.00
40868;DHT22;26586;50.708;22.412;2023-05-24T02:13:11;21.30;47.00
40868;DHT22;26586;50.708;22.412;2023-05-24T02:15:37;21.30;47.00
40868;DHT22;26586;50.708;22.412;2023-05-24T02:18:06;21.30;47.00
40868;DHT22;26586;50.708;22.412;2023-05-24T02:20:33;21.30;47.00
40868;DHT22;26586;50.708;22.412;2023-05-24T02:23:02;21.30;47.00
40868;DHT22;26586;50.708;22.412;2023-05-24T02:25:30;21.30;47.10
40868;DHT22;26586;50.708;22.412;2023-05-24T02:27:59;21.30;47.00
40868;DHT22;26586;50.708;22.412;2023-05-24T02:30:25;21.30;47.20
40868;DHT22;26586;50.708;22.412;2023-05-24T02:32:52;21.30;47.20
40868;DHT22;26586;50.708;22.412;2023-05-24T02:35:19;21.20;47.10
40868;DHT22;26586;50.708;22.412;2023-05-24T02:37:45;21.20;47.20
40868;DHT22;26586;50.708;22.412;2023-05-24T02:40:12;21.20;47.20
40868;DHT22;26586;50.708;22.412;2023-05-24T02:42:38;21.20;47.20
40868;DHT22;26586;50.708;22.412;2023-05-24T02:45:04;21.20;47.30
40868;DHT22;26586;50.708;22.412;2023-05-24T02:47:31;21.10;47.30
40868;DHT22;26586;50.708;22.412;2023-05-24T02:49:57;21.10;47.30
40868;DHT22;26586;50.708;22.412;2023-05-24T02:52:23;21.10;47.30
40868;DHT22;26586;50.708;22.412;2023-05-24T02:54:49;21.10;47.40
40868;DHT22;26586;50.708;22.412;2023-05-24T02:57:19;21.10;47.50
40868;DHT22;26586;50.708;22.412;2023-05-24T02:59:45;21.10;47.50
40868;DHT22;26586;50.708;22.412;2023-05-24T03:02:11;21.10;47.50
40868;DHT22;26586;50.708;22.412;2023-05-24T03:04:40;21.10;47.80
40868;DHT22;26586;50.708;22.412;2023-05-24T03:07:07;21.00;48.10
40868;DHT22;26586;50.708;22.412;2023-05-24T03:09:36;21.00;47.70
40868;DHT22;26586;50.708;22.412;2023-05-24T03:12:02;21.00;47.80
40868;DHT22;26586;50.708;22.412;2023-05-24T03:14:28;21.00;48.30
40868;DHT22;26586;50.708;22.412;2023-05-24T03:16:54;21.00;48.60
40868;DHT22;26586;50.708;22.412;2023-05-24T03:19:21;21.00;48.80
40868;DHT22;26586;50.708;22.412;2023-05-24T03:21:47;21.00;48.20
40868;DHT22;26586;50.708;22.412;2023-05-24T03:24:13;21.00;48.20
40868;DHT22;26586;50.708;22.412;2023-05-24T03:26:39;20.90;48.10
40868;DHT22;26586;50.708;22.412;2023-05-24T03:29:06;20.90;48.90
40868;DHT22;26586;50.708;22.412;2023-05-24T03:31:32;20.90;52.50
40868;DHT22;26586;50.708;22.412;2023-05-24T03:33:58;20.90;53.40
40868;DHT22;26586;50.708;22.412;2023-05-24T03:36:25;20.90;52.20
40868;DHT22;26586;50.708;22.412;2023-05-24T03:38:53;20.90;53.30
40868;DHT22;26586;50.708;22.412;2023-05-24T03:41:19;20.90;54.60
40868;DHT22;26586;50.708;22.412;2023-05-24T03:43:46;21.00;54.70
40868;DHT22;26586;50.708;22.412;2023-05-24T03:46:12;21.00;56.80
40868;DHT22;26586;50.708;22.412;2023-05-24T03:48:38;21.00;56.00
40868;DHT22;26586;50.708;22.412;2023-05-24T03:51:04;21.00;55.00
40868;DHT22;26586;50.708;22.412;2023-05-24T03:53:31;21.00;58.00
40868;DHT22;26586;50.708;22.412;2023-05-24T03:55:57;21.00;57.00
40868;DHT22;26586;50.708;22.412;2023-05-24T03:58:23;21.00;56.60
40868;DHT22;26586;50.708;22.412;2023-05-24T04:00:49;21.00;54.50
40868;DHT22;26586;50.708;22.412;2023-05-24T04:03:15;21.00;53.60
40868;DHT22;26586;50.708;22.412;2023-05-24T04:05:44;21.00;54.00
40868;DHT22;26586;50.708;22.412;2023-05-24T04:08:11;21.00;55.10
40868;DHT22;26586;50.708;22.412;2023-05-24T04:10:39;21.00;53.40
40868;DHT22;26586;50.708;22.412;2023-05-24T04:13:05;21.00;52.10
40868;DHT22;26586;50.708;22.412;2023-05-24T04:15:31;21.00;51.80
40868;DHT22;26586;50.708;22.412;2023-05-24T04:17:58;20.90;51.60
40868;DHT22;26586;50.708;22.412;2023-05-24T04:20:25;21.00;51.60
40868;DHT22;26586;50.708;22.412;2023-05-24T04:22:52;21.00;51.60
40868;DHT22;26586;50.708;22.412;2023-05-24T04:25:19;20.90;51.70
40868;DHT22;26586;50.708;22.412;2023-05-24T04:27:45;21.00;51.70
40868;DHT22;26586;50.708;22.412;2023-05-24T04:30:15;20.90;51.90
40868;DHT22;26586;50.708;22.412;2023-05-24T04:32:42;21.00;51.80
40868;DHT22;26586;50.708;22.412;2023-05-24T04:35:11;21.00;51.90
40868;DHT22;26586;50.708;22.412;2023-05-24T04:37:37;21.00;51.90
40868;DHT22;26586;50.708;22.412;2023-05-24T04:40:06;21.00;52.20
40868;DHT22;26586;50.708;22.412;2023-05-24T04:42:33;21.00;52.60
40868;DHT22;26586;50.708;22.412;2023-05-24T04:44:59;21.00;53.60
40868;DHT22;26586;50.708;22.412;2023-05-24T04:47:26;21.00;53.90
40868;DHT22;26586;50.708;22.412;2023-05-24T04:49:52;21.00;53.90
40868;DHT22;26586;50.708;22.412;2023-05-24T04:52:18;21.00;53.20
40868;DHT22;26586;50.708;22.412;2023-05-24T04:54:44;21.00;52.80
40868;DHT22;26586;50.708;22.412;2023-05-24T04:57:11;21.00;52.80
40868;DHT22;26586;50.708;22.412;2023-05-24T04:59:37;21.00;52.90
40868;DHT22;26586;50.708;22.412;2023-05-24T05:02:04;21.00;52.90
40868;DHT22;26586;50.708;22.412;2023-05-24T05:04:30;21.00;53.30
40868;DHT22;26586;50.708;22.412;2023-05-24T05:06:56;21.00;53.20
40868;DHT22;26586;50.708;22.412;2023-05-24T05:09:22;21.00;53.60
40868;DHT22;26586;50.708;22.412;2023-05-24T05:11:50;21.00;53.40
40868;DHT22;26586;50.708;22.412;2023-05-24T05:14:16;21.00;53.40
40868;DHT22;26586;50.708;22.412;2023-05-24T05:16:42;21.00;53.30
40868;DHT22;26586;50.708;22.412;2023-05-24T05:19:10;21.00;53.40
40868;DHT22;26586;50.708;22.412;2023-05-24T05:21:36;21.00;53.40
40868;DHT22;26586;50.708;22.412;2023-05-24T05:24:04;21.00;53.80
40868;DHT22;26586;50.708;22.412;2023-05-24T05:26:31;21.00;53.80
40868;DHT22;26586;50.708;22.412;2023-05-24T05:28:57;21.00;53.70
40868;DHT22;26586;50.708;22.412;2023-05-24T05:31:23;21.10;53.60
40868;DHT22;26586;50.708;22.412;2023-05-24T05:33:50;21.00;53.60
40868;DHT22;26586;50.708;22.412;2023-05-24T05:36:16;21.10;53.70
40868;DHT22;26586;50.708;22.412;2023-05-24T05:38:42;21.00;53.90
40868;DHT22;26586;50.708;22.412;2023-05-24T05:41:09;21.00;53.80
40868;DHT22;26586;50.708;22.412;2023-05-24T05:43:35;21.00;53.90
40868;DHT22;26586;50.708;22.412;2023-05-24T05:46:01;21.10;54.00
40868;DHT22;26586;50.708;22.412;2023-05-24T05:48:27;21.00;54.60
40868;DHT22;26586;50.708;22.412;2023-05-24T05:50:56;21.10;55.40
40868;DHT22;26586;50.708;22.412;2023-05-24T05:53:22;21.00;56.10
40868;DHT22;26586;50.708;22.412;2023-05-24T05:55:50;21.10;56.80
40868;DHT22;26586;50.708;22.412;2023-05-24T05:58:16;21.10;56.30
40868;DHT22;26586;50.708;22.412;2023-05-24T06:00:42;21.10;55.90
40868;DHT22;26586;50.708;22.412;2023-05-24T06:03:08;21.10;55.70
40868;DHT22;26586;50.708;22.412;2023-05-24T06:05:36;21.10;55.90
40868;DHT22;26586;50.708;22.412;2023-05-24T06:08:01;21.10;55.60
40868;DHT22;26586;50.708;22.412;2023-05-24T06:10:28;21.10;55.60
40868;DHT22;26586;50.708;22.412;2023-05-24T06:12:54;21.10;55.50
40868;DHT22;26586;50.708;22.412;2023-05-24T06:15:20;21.10;55.30
40868;DHT22;26586;50.708;22.412;2023-05-24T06:17:48;21.10;55.40
40868;DHT22;26586;50.708;22.412;2023-05-24T06:20:16;21.10;55.40
40868;DHT22;26586;50.708;22.412;2023-05-24T06:22:42;21.10;55.50
40868;DHT22;26586;50.708;22.412;2023-05-24T06:25:10;21.10;55.70
40868;DHT22;26586;50.708;22.412;2023-05-24T06:27:40;21.10;55.80
40868;DHT22;26586;50.708;22.412;2023-05-24T06:30:07;21.10;55.80
40868;DHT22;26586;50.708;22.412;2023-05-24T06:32:33;21.10;55.90
40868;DHT22;26586;50.708;22.412;2023-05-24T06:34:59;21.10;56.10
40868;DHT22;26586;50.708;22.412;2023-05-24T06:37:26;21.10;56.10
40868;DHT22;26586;50.708;22.412;2023-05-24T06:39:56;21.10;56.40
40868;DHT22;26586;50.708;22.412;2023-05-24T06:42:22;21.10;56.90
40868;DHT22;26586;50.708;22.412;2023-05-24T06:44:48;21.10;57.00
40868;DHT22;26586;50.708;22.412;2023-05-24T06:47:14;21.20;57.20
40868;DHT22;26586;50.708;22.412;2023-05-24T06:49:41;21.20;57.10
40868;DHT22;26586;50.708;22.412;2023-05-24T06:52:07;21.20;57.30
40868;DHT22;26586;50.708;22.412;2023-05-24T06:54:34;21.20;57.50
40868;DHT22;26586;50.708;22.412;2023-05-24T06:57:00;21.20;57.70
40868;DHT22;26586;50.708;22.412;2023-05-24T06:59:26;21.30;57.90
40868;DHT22;26586;50.708;22.412;2023-05-24T07:01:55;21.20;58.10
40868;DHT22;26586;50.708;22.412;2023-05-24T07:04:26;21.30;58.20
40868;DHT22;26586;50.708;22.412;2023-05-24T07:06:55;21.30;58.30
40868;DHT22;26586;50.708;22.412;2023-05-24T07:09:24;21.30;58.40
40868;DHT22;26586;50.708;22.412;2023-05-24T07:11:50;21.30;58.30
40868;DHT22;26586;50.708;22.412;2023-05-24T07:14:16;21.30;58.40
40868;DHT22;26586;50.708;22.412;2023-05-24T07:16:43;21.30;58.30
40868;DHT22;26586;50.708;22.412;2023-05-24T07:19:14;21.40;58.40
40868;DHT22;26586;50.708;22.412;2023-05-24T07:21:40;21.40;58.20
40868;DHT22;26586;50.708;22.412;2023-05-24T07:24:08;21.40;58.10
40868;DHT22;26586;50.708;22.412;2023-05-24T07:26:37;21.40;58.10
40868;DHT22;26586;50.708;22.412;2023-05-24T07:29:05;21.40;58.10
40868;DHT22;26586;50.708;22.412;2023-05-24T07:31:31;21.40;57.90
40868;DHT22;26586;50.708;22.412;2023-05-24T07:34:01;21.50;57.90
40868;DHT22;26586;50.708;22.412;2023-05-24T07:36:33;21.50;58.10
40868;DHT22;26586;50.708;22.412;2023-05-24T07:39:00;21.50;58.10
40868;DHT22;26586;50.708;22.412;2023-05-24T07:41:27;21.50;58.00
40868;DHT22;26586;50.708;22.412;2023-05-24T07:43:57;21.50;58.00
40868;DHT22;26586;50.708;22.412;2023-05-24T07:46:23;21.60;58.00
40868;DHT22;26586;50.708;22.412;2023-05-24T07:48:50;21.60;58.00
40868;DHT22;26586;50.708;22.412;2023-05-24T07:51:18;21.60;58.20
40868;DHT22;26586;50.708;22.412;2023-05-24T07:53:52;21.60;58.20
40868;DHT22;26586;50.708;22.412;2023-05-24T07:56:18;21.60;58.10
40868;DHT22;26586;50.708;22.412;2023-05-24T07:58:45;21.70;58.20
40868;DHT22;26586;50.708;22.412;2023-05-24T08:01:13;21.70;58.40
40868;DHT22;26586;50.708;22.412;2023-05-24T08:03:40;21.60;58.20
40868;DHT22;26586;50.708;22.412;2023-05-24T08:06:07;21.70;58.70
40868;DHT22;26586;50.708;22.412;2023-05-24T08:08:43;21.70;58.30
40868;DHT22;26586;50.708;22.412;2023-05-24T08:11:13;21.80;58.30
40868;DHT22;26586;50.708;22.412;2023-05-24T08:13:46;21.80;58.40
40868;DHT22;26586;50.708;22.412;2023-05-24T08:16:13;21.80;58.60
40868;DHT22;26586;50.708;22.412;2023-05-24T08:18:41;21.90;58.40
40868;DHT22;26586;50.708;22.412;2023-05-24T08:21:08;21.90;58.70
40868;DHT22;26586;50.708;22.412;2023-05-24T08:23:35;21.90;58.40
40868;DHT22;26586;50.708;22.412;2023-05-24T08:26:05;21.90;58.20
40868;DHT22;26586;50.708;22.412;2023-05-24T08:28:32;22.00;58.40
40868;DHT22;26586;50.708;22.412;2023-05-24T08:30:58;22.00;58.30
40868;DHT22;26586;50.708;22.412;2023-05-24T08:33:24;22.00;58.30
40868;DHT22;26586;50.708;22.412;2023-05-24T08:35:51;22.00;58.20
40868;DHT22;26586;50.708;22.412;2023-05-24T08:38:17;22.10;58.70
40868;DHT22;26586;50.708;22.412;2023-05-24T08:40:44;22.10;59.90
40868;DHT22;26586;50.708;22.412;2023-05-24T08:43:15;22.10;59.40
40868;DHT22;26586;50.708;22.412;2023-05-24T08:45:42;22.20;59.00
40868;DHT22;26586;50.708;22.412;2023-05-24T08:48:10;22.20;59.20
40868;DHT22;26586;50.708;22.412;2023-05-24T08:50:39;22.30;59.50
40868;DHT22;26586;50.708;22.412;2023-05-24T08:53:08;22.30;59.70
40868;DHT22;26586;50.708;22.412;2023-05-24T08:55:41;22.40;59.70
40868;DHT22;26586;50.708;22.412;2023-05-24T08:58:10;22.40;59.90
40868;DHT22;26586;50.708;22.412;2023-05-24T09:00:37;22.40;59.60
40868;DHT22;26586;50.708;22.412;2023-05-24T09:03:06;22.50;59.60
40868;DHT22;26586;50.708;22.412;2023-05-24T09:05:33;22.50;59.90
40868;DHT22;26586;50.708;22.412;2023-05-24T09:08:02;22.60;59.80
40868;DHT22;26586;50.708;22.412;2023-05-24T09:10:32;22.60;59.60
40868;DHT22;26586;50.708;22.412;2023-05-24T09:13:04;22.60;59.50
40868;DHT22;26586;50.708;22.412;2023-05-24T09:15:31;22.70;59.40
40868;DHT22;26586;50.708;22.412;2023-05-24T09:17:58;22.70;59.20
40868;DHT22;26586;50.708;22.412;2023-05-24T09:20:24;22.70;59.10
40868;DHT22;26586;50.708;22.412;2023-05-24T09:22:52;22.80;58.90
40868;DHT22;26586;50.708;22.412;2023-05-24T09:25:18;22.80;58.80
40868;DHT22;26586;50.708;22.412;2023-05-24T09:27:52;22.80;58.60
40868;DHT22;26586;50.708;22.412;2023-05-24T09:30:19;22.80;58.40
40868;DHT22;26586;50.708;22.412;2023-05-24T09:33:06;22.80;58.10
40868;DHT22;26586;50.708;22.412;2023-05-24T09:35:33;22.90;58.10
40868;DHT22;26586;50.708;22.412;2023-05-24T09:38:01;22.90;58.30
40868;DHT22;26586;50.708;22.412;2023-05-24T09:40:29;22.90;58.30
40868;DHT22;26586;50.708;22.412;2023-05-24T09:43:22;22.90;58.10
40868;DHT22;26586;50.708;22.412;2023-05-24T09:45:49;22.90;57.90
40868;DHT22;26586;50.708;22.412;2023-05-24T09:48:19;22.80;57.90
40868;DHT22;26586;50.708;22.412;2023-05-24T09:51:06;22.90;57.90
40868;DHT22;26586;50.708;22.412;2023-05-24T09:53:36;23.00;57.80
40868;DHT22;26586;50.708;22.412;2023-05-24T09:56:08;22.90;57.70
40868;DHT22;26586;50.708;22.412;2023-05-24T09:58:36;22.90;57.80
40868;DHT22;26586;50.708;22.412;2023-05-24T10:01:09;23.00;58.00
40868;DHT22;26586;50.708;22.412;2023-05-24T10:03:37;23.00;58.20
40868;DHT22;26586;50.708;22.412;2023-05-24T10:06:05;23.00;58.20
40868;DHT22;26586;50.708;22.412;2023-05-24T10:08:35;23.00;58.30
40868;DHT22;26586;50.708;22.412;2023-05-24T10:11:02;23.00;58.40
40868;DHT22;26586;50.708;22.412;2023-05-24T10:13:32;23.00;58.40
40868;DHT22;26586;50.708;22.412;2023-05-24T10:16:02;23.00;58.50
40868;DHT22;26586;50.708;22.412;2023-05-24T10:18:29;23.00;58.60
40868;DHT22;26586;50.708;22.412;2023-05-24T10:20:56;23.10;58.50
40868;DHT22;26586;50.708;22.412;2023-05-24T10:23:25;23.00;58.40
40868;DHT22;26586;50.708;22.412;2023-05-24T10:26:05;23.10;58.40
40868;DHT22;26586;50.708;22.412;2023-05-24T10:28:46;23.10;58.40
40868;DHT22;26586;50.708;22.412;2023-05-24T10:31:17;23.10;58.50
40868;DHT22;26586;50.708;22.412;2023-05-24T10:33:47;23.10;58.40
40868;DHT22;26586;50.708;22.412;2023-05-24T10:36:14;23.20;58.40
40868;DHT22;26586;50.708;22.412;2023-05-24T10:38:47;23.20;58.30
40868;DHT22;26586;50.708;22.412;2023-05-24T10:41:16;23.20;58.10
40868;DHT22;26586;50.708;22.412;2023-05-24T10:43:46;23.20;58.00
40868;DHT22;26586;50.708;22.412;2023-05-24T10:46:21;23.20;57.90
40868;DHT22;26586;50.708;22.412;2023-05-24T10:48:59;23.30;57.80
40868;DHT22;26586;50.708;22.412;2023-05-24T10:54:13;23.30;57.70
40868;DHT22;26586;50.708;22.412;2023-05-24T10:56:43;23.40;57.60
40868;DHT22;26586;50.708;22.412;2023-05-24T10:59:34;23.40;57.50
40868;DHT22;26586;50.708;22.412;2023-05-24T11:02:11;23.40;57.40
40868;DHT22;26586;50.708;22.412;2023-05-24T11:04:44;23.50;57.30
40868;DHT22;26586;50.708;22.412;2023-05-24T11:07:13;23.50;57.10
40868;DHT22;26586;50.708;22.412;2023-05-24T11:09:41;23.50;57.00
40868;DHT22;26586;50.708;22.412;2023-05-24T11:12:21;23.50;56.80
40868;DHT22;26586;50.708;22.412;2023-05-24T11:14:55;23.60;56.80
40868;DHT22;26586;50.708;22.412;2023-05-24T11:17:24;23.60;56.60
40868;DHT22;26586;50.708;22.412;2023-05-24T11:19:52;23.60;56.70
40868;DHT22;26586;50.708;22.412;2023-05-24T11:22:21;23.70;56.60
40868;DHT22;26586;50.708;22.412;2023-05-24T11:24:47;23.70;56.40
40868;DHT22;26586;50.708;22.412;2023-05-24T11:27:19;23.70;56.20
40868;DHT22;26586;50.708;22.412;2023-05-24T11:29:49;23.80;56.20
40868;DHT22;26586;50.708;22.412;2023-05-24T11:32:20;23.80;56.10
40868;DHT22;26586;50.708;22.412;2023-05-24T11:34:53;23.80;56.00
40868;DHT22;26586;50.708;22.412;2023-05-24T11:37:20;23.90;55.70
40868;DHT22;26586;50.708;22.412;2023-05-24T11:39:51;23.90;55.70
40868;DHT22;26586;50.708;22.412;2023-05-24T11:42:20;23.90;55.60
40868;DHT22;26586;50.708;22.412;2023-05-24T11:44:49;23.90;55.40
40868;DHT22;26586;50.708;22.412;2023-05-24T11:47:15;24.00;56.10
40868;DHT22;26586;50.708;22.412;2023-05-24T11:49:49;24.00;55.50
40868;DHT22;26586;50.708;22.412;2023-05-24T11:52:15;24.00;55.60
40868;DHT22;26586;50.708;22.412;2023-05-24T11:54:42;24.00;55.70
40868;DHT22;26586;50.708;22.412;2023-05-24T11:57:13;24.00;55.70
40868;DHT22;26586;50.708;22.412;2023-05-24T11:59:40;24.00;55.60
40868;DHT22;26586;50.708;22.412;2023-05-24T12:02:06;24.10;55.40
40868;DHT22;26586;50.708;22.412;2023-05-24T12:04:34;24.10;54.90
40868;DHT22;26586;50.708;22.412;2023-05-24T12:07:01;24.10;54.60
40868;DHT22;26586;50.708;22.412;2023-05-24T12:09:28;24.10;54.60
40868;DHT22;26586;50.708;22.412;2023-05-24T12:11:54;24.10;54.50
40868;DHT22;26586;50.708;22.412;2023-05-24T12:14:27;24.10;54.50
40868;DHT22;26586;50.708;22.412;2023-05-24T12:16:56;24.10;54.90
40868;DHT22;26586;50.708;22.412;2023-05-24T12:19:31;24.20;55.50
40868;DHT22;26586;50.708;22.412;2023-05-24T12:22:03;24.20;55.20
40868;DHT22;26586;50.708;22.412;2023-05-24T12:24:34;24.20;55.40
40868;DHT22;26586;50.708;22.412;2023-05-24T12:27:01;24.20;55.60
40868;DHT22;26586;50.708;22.412;2023-05-24T12:29:36;24.20;55.90
40868;DHT22;26586;50.708;22.412;2023-05-24T12:32:06;24.20;56.10
40868;DHT22;26586;50.708;22.412;2023-05-24T12:34:40;24.30;56.10
40868;DHT22;26586;50.708;22.412;2023-05-24T12:37:08;24.20;56.10
40868;DHT22;26586;50.708;22.412;2023-05-24T12:39:35;24.30;56.30
40868;DHT22;26586;50.708;22.412;2023-05-24T12:42:03;24.30;56.30
40868;DHT22;26586;50.708;22.412;2023-05-24T12:44:36;24.20;56.10
40868;DHT22;26586;50.708;22.412;2023-05-24T12:47:04;24.30;56.00
40868;DHT22;26586;50.708;22.412;2023-05-24T12:49:32;24.20;55.80
40868;DHT22;26586;50.708;22.412;2023-05-24T12:51:59;24.30;55.80
40868;DHT22;26586;50.708;22.412;2023-05-24T12:54:27;24.20;55.80
40868;DHT22;26586;50.708;22.412;2023-05-24T12:56:57;24.20;56.00
40868;DHT22;26586;50.708;22.412;2023-05-24T12:59:31;24.30;56.10
40868;DHT22;26586;50.708;22.412;2023-05-24T13:01:57;24.20;56.20
40868;DHT22;26586;50.708;22.412;2023-05-24T13:04:32;24.20;56.10
40868;DHT22;26586;50.708;22.412;2023-05-24T13:07:01;24.30;56.30
40868;DHT22;26586;50.708;22.412;2023-05-24T13:09:28;24.30;56.30
40868;DHT22;26586;50.708;22.412;2023-05-24T13:11:54;24.20;56.40
40868;DHT22;26586;50.708;22.412;2023-05-24T13:14:28;24.20;56.40
40868;DHT22;26586;50.708;22.412;2023-05-24T13:16:55;24.20;56.30
40868;DHT22;26586;50.708;22.412;2023-05-24T13:19:21;24.30;56.00
40868;DHT22;26586;50.708;22.412;2023-05-24T13:21:47;24.20;55.70
40868;DHT22;26586;50.708;22.412;2023-05-24T13:24:14;24.20;55.70
40868;DHT22;26586;50.708;22.412;2023-05-24T13:26:40;24.20;55.80
40868;DHT22;26586;50.708;22.412;2023-05-24T13:29:07;24.20;55.70
40868;DHT22;26586;50.708;22.412;2023-05-24T13:31:34;24.30;55.80
40868;DHT22;26586;50.708;22.412;2023-05-24T13:34:05;24.30;55.80
40868;DHT22;26586;50.708;22.412;2023-05-24T13:36:34;24.30;55.80
40868;DHT22;26586;50.708;22.412;2023-05-24T13:39:01;24.20;55.70
40868;DHT22;26586;50.708;22.412;2023-05-24T13:41:29;24.30;55.90
40868;DHT22;26586;50.708;22.412;2023-05-24T13:43:58;24.30;56.00
40868;DHT22;26586;50.708;22.412;2023-05-24T13:46:24;24.20;55.70
40868;DHT22;26586;50.708;22.412;2023-05-24T13:48:51;24.20;55.60
40868;DHT22;26586;50.708;22.412;2023-05-24T13:51:20;24.20;55.60
40868;DHT22;26586;50.708;22.412;2023-05-24T13:53:53;24.20;55.60
40868;DHT22;26586;50.708;22.412;2023-05-24T13:56:22;24.20;55.60
40868;DHT22;26586;50.708;22.412;2023-05-24T13:58:50;24.20;55.50
40868;DHT22;26586;50.708;22.412;2023-05-24T14:01:17;24.20;55.50
40868;DHT22;26586;50.708;22.412;2023-05-24T14:03:43;24.20;55.40
40868;DHT22;26586;50.708;22.412;2023-05-24T14:06:12;24.20;55.50
40868;DHT22;26586;50.708;22.412;2023-05-24T14:08:38;24.20;55.50
40868;DHT22;26586;50.708;22.412;2023-05-24T14:11:04;24.20;55.60
40868;DHT22;26586;50.708;22.412;2023-05-24T14:13:31;24.20;55.60
40868;DHT22;26586;50.708;22.412;2023-05-24T14:15:58;24.10;55.60
40868;DHT22;26586;50.708;22.412;2023-05-24T14:18:24;24.10;55.60
40868;DHT22;26586;50.708;22.412;2023-05-24T14:20:51;24.20;55.60
40868;DHT22;26586;50.708;22.412;2023-05-24T14:23:20;24.10;55.60
40868;DHT22;26586;50.708;22.412;2023-05-24T14:25:50;24.10;55.70
40868;DHT22;26586;50.708;22.412;2023-05-24T14:28:19;24.10;55.70
40868;DHT22;26586;50.708;22.412;2023-05-24T14:30:51;24.10;55.80
40868;DHT22;26586;50.708;22.412;2023-05-24T14:33:18;24.10;55.90
40868;DHT22;26586;50.708;22.412;2023-05-24T14:35:44;24.10;55.90
40868;DHT22;26586;50.708;22.412;2023-05-24T14:38:11;24.10;55.80
40868;DHT22;26586;50.708;22.412;2023-05-24T14:40:37;24.10;55.80
40868;DHT22;26586;50.708;22.412;2023-05-24T14:43:06;24.10;55.70
40868;DHT22;26586;50.708;22.412;2023-05-24T14:45:35;24.10;55.70
40868;DHT22;26586;50.708;22.412;2023-05-24T14:48:04;24.10;55.70
40868;DHT22;26586;50.708;22.412;2023-05-24T14:50:30;24.10;55.70
40868;DHT22;26586;50.708;22.412;2023-05-24T14:52:59;24.10;55.80
40868;DHT22;26586;50.708;22.412;2023-05-24T14:55:26;24.10;55.80
40868;DHT22;26586;50.708;22.412;2023-05-24T14:57:52;24.10;55.80
40868;DHT22;26586;50.708;22.412;2023-05-24T15:00:19;24.10;55.90
40868;DHT22;26586;50.708;22.412;2023-05-24T15:02:48;24.10;56.20
40868;DHT22;26586;50.708;22.412;2023-05-24T15:05:18;24.10;56.10
40868;DHT22;26586;50.708;22.412;2023-05-24T15:07:44;24.10;56.40
40868;DHT22;26586;50.708;22.412;2023-05-24T15:10:11;24.10;56.60
40868;DHT22;26586;50.708;22.412;2023-05-24T15:12:37;24.10;56.40
40868;DHT22;26586;50.708;22.412;2023-05-24T15:15:09;24.00;56.10
40868;DHT22;26586;50.708;22.412;2023-05-24T15:17:38;24.10;56.30
40868;DHT22;26586;50.708;22.412;2023-05-24T15:20:04;24.10;56.80
40868;DHT22;26586;50.708;22.412;2023-05-24T15:22:31;24.00;57.20
40868;DHT22;26586;50.708;22.412;2023-05-24T15:24:58;24.10;57.10
40868;DHT22;26586;50.708;22.412;2023-05-24T15:27:25;24.10;57.00
40868;DHT22;26586;50.708;22.412;2023-05-24T15:29:52;24.00;56.90
40868;DHT22;26586;50.708;22.412;2023-05-24T15:32:26;24.10;56.80
40868;DHT22;26586;50.708;22.412;2023-05-24T15:34:52;24.00;56.60
40868;DHT22;26586;50.708;22.412;2023-05-24T15:37:22;24.10;56.70
40868;DHT22;26586;50.708;22.412;2023-05-24T15:39:48;24.10;56.60
40868;DHT22;26586;50.708;22.412;2023-05-24T15:42:18;24.10;56.60